Hlavní strana
METAR-TAF:

METAR-TAF

Letiště :

Kastamonu, Turecko

zeměpisná šířka: 41-19-01N, zeměpisná délka: 33-47-46E, výška: 1073 m

METAR: chybějící

Čas: 04:21 (01:21 UTC)

Předpověď počasí

Zpráva byla vytvořena před 11 hodinami a 41 minutami, v 13:40 UTC
Předpověď platná od 12 v 15 UTC do 12 v 24 UTC
vítr z různých směrů 2 kt
Viditelnost 10 km a více
Polojasno ve výšce 3500 ft
Dočasný
od 12 v 15 UTC do 12 v 18 UTC
Skoro jasno ve výšce 2400 ft, Cumulonimbus.
Oblačno až skoro zataženo ve výšce 2800 ft
bouřka, slabý déšť

TAF: LTAL 121340Z 1215/1224 VRB02KT 9999 SCT035 TEMPO 1215/1218 -TSRA FEW024CB BKN028

Stav a předpovědi počasí z více než 4 000 letišť (zprávy METAR a TAF).

Červené a žluté tečky na mapě představují dostupné meteorologické stanice.

Když kurzor umístíte na tečku, zobrazí se název stanice.

Pak kliknutím zobrazíte stav a předpověď počasí.

Chcete-li změnit mapu, kliknutím na zelené tlačítko se znaménkem +mapu přiblížíte, kliknutím na zelené tlačítko se znaménkem – mapu oddálíte a kliknutím na zelené šipky přejdete na sousední mapy.


METAR-TAF: